createdAt,value
2023-04-19T00:02:26.524Z,18.80
2023-04-19T00:04:55.863Z,18.76
2023-04-19T00:07:24.264Z,18.76
2023-04-19T00:09:52.678Z,18.83
2023-04-19T00:12:21.728Z,18.86
2023-04-19T00:14:49.955Z,18.86
2023-04-19T00:17:18.438Z,18.86
2023-04-19T00:19:47.183Z,18.91
2023-04-19T00:22:15.867Z,18.98
2023-04-19T00:24:44.348Z,19.01
2023-04-19T00:27:12.888Z,19.01
2023-04-19T00:29:41.214Z,19.00
2023-04-19T00:32:09.748Z,18.99
2023-04-19T00:34:38.019Z,18.95
2023-04-19T00:37:06.952Z,18.96
2023-04-19T00:39:35.355Z,18.97
2023-04-19T00:42:06.062Z,18.99
2023-04-19T00:44:35.578Z,18.98
2023-04-19T00:47:03.929Z,18.95
2023-04-19T00:49:32.544Z,18.94
2023-04-19T00:52:01.063Z,18.92
2023-04-19T00:54:30.042Z,18.87
2023-04-19T00:56:58.673Z,18.87
2023-04-19T00:59:27.168Z,18.82
2023-04-19T01:01:55.723Z,18.83
2023-04-19T01:04:24.392Z,18.80
2023-04-19T01:06:52.846Z,18.76
2023-04-19T01:09:21.304Z,18.74
2023-04-19T01:11:50.889Z,18.72
2023-04-19T01:14:19.116Z,18.66
2023-04-19T01:16:48.419Z,18.60
2023-04-19T01:19:16.974Z,18.50
2023-04-19T01:21:46.546Z,18.41
2023-04-19T01:24:14.986Z,18.33
2023-04-19T01:26:43.759Z,18.27
2023-04-19T01:29:12.357Z,18.22
2023-04-19T01:31:41.263Z,18.19
2023-04-19T01:34:09.592Z,18.09
2023-04-19T01:36:40.120Z,18.05
2023-04-19T01:39:08.462Z,17.99
2023-04-19T01:41:37.114Z,17.93
2023-04-19T01:44:05.472Z,17.84
2023-04-19T01:46:34.892Z,17.78
2023-04-19T01:49:03.826Z,17.72
2023-04-19T01:51:33.287Z,17.67
2023-04-19T01:54:02.887Z,17.63
2023-04-19T01:56:31.857Z,17.58
2023-04-19T01:59:00.399Z,17.53
2023-04-19T02:01:28.865Z,17.47
2023-04-19T02:03:57.683Z,17.45
2023-04-19T02:06:27.430Z,17.39
2023-04-19T02:08:55.861Z,17.36
2023-04-19T02:11:24.551Z,17.36
2023-04-19T02:13:52.879Z,17.31
2023-04-19T02:16:21.632Z,17.27
2023-04-19T02:18:52.252Z,17.25
2023-04-19T02:21:20.634Z,17.27
2023-04-19T02:23:49.093Z,17.22
2023-04-19T02:26:17.651Z,17.15
2023-04-19T02:28:46.077Z,17.13
2023-04-19T02:31:14.432Z,17.09
2023-04-19T02:33:43.692Z,17.13
2023-04-19T02:36:12.842Z,17.17
2023-04-19T02:38:41.716Z,17.19
2023-04-19T02:41:10.176Z,17.21
2023-04-19T02:43:40.810Z,17.25
2023-04-19T02:46:10.734Z,17.28
2023-04-19T02:48:39.046Z,17.29
2023-04-19T02:51:07.717Z,17.26
2023-04-19T02:53:38.900Z,17.25
2023-04-19T02:56:08.096Z,17.31
2023-04-19T02:58:37.030Z,17.30
2023-04-19T03:01:07.137Z,17.29
2023-04-19T03:03:35.628Z,17.27
2023-04-19T03:06:04.212Z,17.27
2023-04-19T03:08:34.084Z,17.26
2023-04-19T03:11:02.648Z,17.28
2023-04-19T03:13:32.042Z,17.28
2023-04-19T03:16:00.770Z,17.30
2023-04-19T03:18:30.426Z,17.31
2023-04-19T03:20:58.752Z,17.32
2023-04-19T03:23:28.992Z,17.33
2023-04-19T03:25:59.347Z,17.34
2023-04-19T03:28:37.039Z,17.38
2023-04-19T03:31:25.852Z,17.42
2023-04-19T03:33:55.210Z,17.43
2023-04-19T03:36:27.990Z,17.46
2023-04-19T03:38:56.528Z,17.46
2023-04-19T03:41:25.909Z,17.51
2023-04-19T03:44:02.146Z,17.58
2023-04-19T03:46:33.658Z,17.62
2023-04-19T03:49:02.152Z,17.66
2023-04-19T03:51:31.821Z,17.71
2023-04-19T03:54:00.587Z,17.77
2023-04-19T03:56:29.191Z,17.79
2023-04-19T03:58:57.907Z,17.83
2023-04-19T04:01:27.003Z,17.88
2023-04-19T04:03:56.218Z,17.96
2023-04-19T04:06:25.324Z,17.99
2023-04-19T04:08:53.938Z,18.04
2023-04-19T04:11:22.546Z,18.11
2023-04-19T04:13:51.361Z,18.17
2023-04-19T04:16:23.135Z,18.22
2023-04-19T04:18:52.318Z,18.29
2023-04-19T04:21:21.530Z,18.37
2023-04-19T04:23:50.093Z,18.44
2023-04-19T04:26:34.344Z,18.51
2023-04-19T04:29:29.245Z,18.61
2023-04-19T04:31:59.698Z,18.66
2023-04-19T04:34:33.231Z,18.72
2023-04-19T04:37:09.298Z,18.77
2023-04-19T04:39:40.087Z,18.77
2023-04-19T04:42:10.900Z,18.74
2023-04-19T04:44:40.128Z,18.83
2023-04-19T04:47:08.677Z,18.94
2023-04-19T04:49:42.398Z,18.99
2023-04-19T04:52:10.742Z,19.04
2023-04-19T04:54:46.031Z,19.10
2023-04-19T04:57:22.037Z,19.12
2023-04-19T04:59:50.404Z,19.16
2023-04-19T05:02:19.823Z,19.20
2023-04-19T05:04:48.649Z,19.23
2023-04-19T05:07:17.048Z,19.27
2023-04-19T05:09:45.545Z,19.29
2023-04-19T05:12:15.643Z,19.33
2023-04-19T05:14:44.026Z,19.36
2023-04-19T05:17:12.623Z,19.36
2023-04-19T05:19:41.086Z,19.37
2023-04-19T05:22:09.510Z,19.36
2023-04-19T05:24:41.817Z,19.40
2023-04-19T05:27:11.532Z,19.42
2023-04-19T05:29:39.991Z,19.44
2023-04-19T05:32:08.398Z,19.44
2023-04-19T05:34:46.554Z,19.45
2023-04-19T05:37:16.219Z,19.46
2023-04-19T05:39:45.021Z,19.44
2023-04-19T05:42:13.520Z,19.47
2023-04-19T05:44:42.087Z,19.52
2023-04-19T05:47:10.454Z,19.56
2023-04-19T05:50:08.239Z,19.66
2023-04-19T05:52:41.227Z,19.70
2023-04-19T05:55:10.234Z,19.74
2023-04-19T05:57:42.725Z,19.79
2023-04-19T06:00:11.776Z,19.85
2023-04-19T06:02:44.814Z,19.89
2023-04-19T06:05:14.897Z,19.94
2023-04-19T06:07:50.603Z,19.99
2023-04-19T06:10:24.241Z,20.01
2023-04-19T06:12:53.199Z,20.08
2023-04-19T06:15:21.918Z,20.14
2023-04-19T06:17:50.466Z,20.24
2023-04-19T06:20:18.739Z,20.35
2023-04-19T06:22:47.396Z,20.36
2023-04-19T06:25:15.967Z,20.39
2023-04-19T06:27:44.185Z,20.38
2023-04-19T06:30:12.963Z,20.44
2023-04-19T06:32:41.567Z,20.52
2023-04-19T06:35:10.299Z,20.56
2023-04-19T06:37:38.626Z,20.61
2023-04-19T06:40:08.637Z,20.59
2023-04-19T06:42:37.698Z,20.63
2023-04-19T06:45:08.654Z,20.60
2023-04-19T06:47:37.738Z,20.68
2023-04-19T06:50:07.021Z,20.72
2023-04-19T06:52:35.416Z,20.84
2023-04-19T06:55:04.047Z,20.94
2023-04-19T06:57:32.307Z,21.04
2023-04-19T07:00:00.977Z,21.16
2023-04-19T07:02:30.184Z,21.29
2023-04-19T07:04:58.647Z,21.35
2023-04-19T07:07:26.989Z,21.44
2023-04-19T07:09:55.270Z,21.54
2023-04-19T07:12:23.874Z,21.61
2023-04-19T07:14:56.627Z,21.73
2023-04-19T07:17:24.916Z,21.86
2023-04-19T07:19:53.496Z,21.96
2023-04-19T07:22:22.540Z,22.03
2023-04-19T07:24:52.359Z,22.17
2023-04-19T07:27:21.194Z,22.28
2023-04-19T07:32:16.179Z,21.49
2023-04-19T07:34:46.055Z,22.65
2023-04-19T07:37:14.515Z,22.66
2023-04-19T07:39:43.108Z,22.70
2023-04-19T07:42:11.645Z,22.71
2023-04-19T07:44:39.893Z,22.72
2023-04-19T07:47:08.192Z,22.78
2023-04-19T07:49:37.879Z,22.82
2023-04-19T07:52:09.225Z,22.91
2023-04-19T07:54:39.461Z,22.98
2023-04-19T07:57:07.895Z,23.04
2023-04-19T07:59:36.598Z,23.13
2023-04-19T08:02:05.202Z,23.19
2023-04-19T08:04:34.400Z,23.30
2023-04-19T08:07:05.073Z,23.37
2023-04-19T08:09:34.500Z,23.51
2023-04-19T08:12:03.012Z,23.58
2023-04-19T08:14:40.330Z,23.69
2023-04-19T08:17:24.614Z,23.80
2023-04-19T08:19:55.222Z,23.88
2023-04-19T08:22:23.598Z,23.96
2023-04-19T08:24:52.260Z,24.01
2023-04-19T08:27:20.897Z,23.99
2023-04-19T08:29:49.997Z,24.06
2023-04-19T08:32:18.389Z,24.13
2023-04-19T08:34:46.841Z,24.20
2023-04-19T08:37:15.200Z,24.24
2023-04-19T08:39:43.579Z,24.21
2023-04-19T08:42:24.547Z,24.23
2023-04-19T08:47:52.063Z,24.36
2023-04-19T08:50:33.633Z,24.39
2023-04-19T08:53:23.748Z,24.43
2023-04-19T08:56:12.945Z,24.50
2023-04-19T09:01:30.899Z,24.58
2023-04-19T09:04:20.796Z,24.72
2023-04-19T09:06:50.998Z,24.76
2023-04-19T09:09:34.024Z,24.89
2023-04-19T09:12:16.445Z,24.99
2023-04-19T09:14:57.879Z,25.09
2023-04-19T09:17:33.632Z,25.06
2023-04-19T09:20:02.030Z,25.18
2023-04-19T09:22:31.903Z,25.33
2023-04-19T09:27:35.601Z,25.58
2023-04-19T09:30:04.799Z,25.71
2023-04-19T09:32:47.530Z,25.76
2023-04-19T09:35:16.658Z,25.73
2023-04-19T09:38:05.597Z,25.68
2023-04-19T09:40:37.871Z,25.71
2023-04-19T09:43:28.995Z,25.70
2023-04-19T09:45:54.941Z,25.75
2023-04-19T09:48:23.487Z,25.81
2023-04-19T09:51:00.709Z,25.80
2023-04-19T09:53:35.317Z,25.76
2023-04-19T09:56:06.383Z,25.69
2023-04-19T09:58:49.009Z,25.72
2023-04-19T10:01:19.696Z,25.79
2023-04-19T10:03:49.715Z,25.78
2023-04-19T10:08:50.555Z,25.92
2023-04-19T10:11:22.132Z,26.06
2023-04-19T10:13:50.446Z,26.13
2023-04-19T10:16:20.472Z,26.10
2023-04-19T10:18:50.276Z,26.10
2023-04-19T10:21:19.557Z,26.17
2023-04-19T10:23:48.106Z,26.30
2023-04-19T10:26:16.934Z,26.40
2023-04-19T10:28:45.460Z,26.49
2023-04-19T10:31:13.900Z,26.49
2023-04-19T10:33:43.043Z,26.62
2023-04-19T10:36:15.843Z,26.78
2023-04-19T10:38:48.550Z,26.95
2023-04-19T10:41:18.873Z,26.97
2023-04-19T10:43:48.859Z,27.04
2023-04-19T10:46:37.106Z,27.03
2023-04-19T10:49:06.203Z,26.97
2023-04-19T10:51:44.567Z,26.86
2023-04-19T10:54:39.574Z,26.84
2023-04-19T10:57:10.402Z,26.92
2023-04-19T10:59:40.521Z,26.81
2023-04-19T11:02:25.362Z,26.80
2023-04-19T11:04:53.964Z,26.85
2023-04-19T11:07:22.620Z,26.85
2023-04-19T11:09:52.327Z,26.83
2023-04-19T11:12:21.203Z,26.80
2023-04-19T11:14:53.590Z,26.80
2023-04-19T11:17:28.043Z,26.86
2023-04-19T11:19:56.715Z,26.88
2023-04-19T11:22:32.988Z,26.89
2023-04-19T11:25:14.278Z,26.90
2023-04-19T11:27:47.310Z,26.81
2023-04-19T11:30:21.892Z,26.72
2023-04-19T11:32:54.837Z,26.61
2023-04-19T11:35:24.794Z,26.60
2023-04-19T11:37:53.848Z,26.54
2023-04-19T11:40:23.148Z,26.51
2023-04-19T11:43:01.982Z,26.52
2023-04-19T11:45:38.267Z,26.54
2023-04-19T11:48:08.272Z,26.54
2023-04-19T11:50:43.961Z,26.45
2023-04-19T11:53:19.477Z,26.35
2023-04-19T11:55:54.776Z,26.23
2023-04-19T11:58:30.114Z,26.15
2023-04-19T12:01:22.315Z,26.11
2023-04-19T12:03:54.805Z,26.15
2023-04-19T12:06:24.150Z,26.11
2023-04-19T12:08:53.447Z,26.05
2023-04-19T12:11:23.723Z,25.99
2023-04-19T12:14:15.971Z,25.87
2023-04-19T12:16:45.336Z,25.76
2023-04-19T12:19:20.806Z,25.63
2023-04-19T12:21:49.344Z,25.60
2023-04-19T12:24:18.067Z,25.57
2023-04-19T12:26:57.042Z,25.48
2023-04-19T12:29:25.500Z,25.44
2023-04-19T12:31:54.310Z,25.49
2023-04-19T12:34:23.265Z,25.47
2023-04-19T12:36:51.799Z,25.46
2023-04-19T12:39:20.086Z,25.42
2023-04-19T12:41:51.463Z,25.43
2023-04-19T12:44:19.990Z,25.43
2023-04-19T12:46:48.464Z,25.40
2023-04-19T12:49:22.708Z,25.36
2023-04-19T12:51:51.080Z,25.35
2023-04-19T12:54:19.358Z,25.27
2023-04-19T12:56:47.684Z,25.24
2023-04-19T12:59:16.484Z,25.25
2023-04-19T13:01:45.086Z,25.24
2023-04-19T13:04:13.846Z,25.22
2023-04-19T13:06:42.775Z,25.22
2023-04-19T13:09:14.896Z,25.23
2023-04-19T13:11:44.075Z,25.21
2023-04-19T13:14:12.399Z,25.24
2023-04-19T13:16:40.704Z,25.21
2023-04-19T13:19:09.072Z,25.18
2023-04-19T13:21:37.416Z,25.16
2023-04-19T13:24:05.994Z,25.15
2023-04-19T13:26:34.782Z,25.09
2023-04-19T13:29:03.413Z,24.98
2023-04-19T13:31:32.423Z,24.97
2023-04-19T13:34:01.490Z,24.89
2023-04-19T13:36:31.310Z,24.86
2023-04-19T13:39:00.077Z,24.81
2023-04-19T13:41:28.561Z,24.80
2023-04-19T13:43:57.099Z,24.74
2023-04-19T13:46:25.486Z,24.64
2023-04-19T13:48:53.915Z,24.62
2023-04-19T13:51:22.474Z,24.65
2023-04-19T13:53:50.699Z,24.63
2023-04-19T13:56:19.292Z,24.61
2023-04-19T13:58:47.567Z,24.57
2023-04-19T14:01:16.044Z,24.56
2023-04-19T14:03:44.944Z,24.51
2023-04-19T14:06:13.369Z,24.41
2023-04-19T14:08:42.142Z,24.35
2023-04-19T14:11:10.595Z,24.29
2023-04-19T14:13:39.106Z,24.26
2023-04-19T14:16:07.980Z,24.22
2023-04-19T14:18:36.659Z,24.15
2023-04-19T14:21:05.306Z,24.14
2023-04-19T14:23:33.834Z,24.18
2023-04-19T14:26:02.513Z,24.16
2023-04-19T14:28:31.880Z,24.08
2023-04-19T14:31:00.285Z,24.01
2023-04-19T14:33:28.689Z,24.12
2023-04-19T14:35:56.978Z,24.14
2023-04-19T14:38:25.470Z,24.13
2023-04-19T14:40:54.360Z,24.06
2023-04-19T14:43:22.852Z,23.94
2023-04-19T14:45:51.787Z,23.86
2023-04-19T14:48:22.233Z,23.83
2023-04-19T14:50:51.159Z,23.84
2023-04-19T14:53:19.707Z,23.86
2023-04-19T14:55:48.207Z,23.90
2023-04-19T14:58:17.055Z,23.90
2023-04-19T15:00:45.919Z,23.82
2023-04-19T15:03:15.050Z,23.71
2023-04-19T15:05:44.212Z,23.67
2023-04-19T15:08:26.978Z,23.59
2023-04-19T15:10:58.774Z,23.64
2023-04-19T15:13:27.270Z,23.63
2023-04-19T15:15:56.074Z,23.64
2023-04-19T15:18:24.966Z,23.63
2023-04-19T15:20:53.548Z,23.61
2023-04-19T15:23:23.686Z,23.58
2023-04-19T15:25:52.578Z,23.58
2023-04-19T15:28:21.199Z,23.53
2023-04-19T15:31:00.416Z,23.52
2023-04-19T15:33:28.875Z,23.54
2023-04-19T15:35:57.270Z,23.53
2023-04-19T15:38:27.612Z,23.49
2023-04-19T15:40:56.684Z,23.43
2023-04-19T15:43:25.441Z,23.38
2023-04-19T15:45:53.862Z,23.26
2023-04-19T15:48:22.546Z,23.21
2023-04-19T15:50:51.033Z,23.19
2023-04-19T15:53:23.437Z,23.18
2023-04-19T15:55:55.329Z,23.14
2023-04-19T15:58:24.456Z,23.09
2023-04-19T16:00:52.894Z,23.09
2023-04-19T16:03:21.369Z,23.12
2023-04-19T16:05:52.740Z,23.13
2023-04-19T16:08:20.951Z,23.14
2023-04-19T16:10:49.603Z,23.14
2023-04-19T16:13:18.152Z,23.16
2023-04-19T16:15:46.967Z,23.15
2023-04-19T16:18:15.506Z,23.19
2023-04-19T16:20:43.805Z,23.22
2023-04-19T16:23:14.680Z,23.20
2023-04-19T16:25:43.347Z,23.16
2023-04-19T16:28:11.843Z,23.12
2023-04-19T16:30:40.170Z,23.08
2023-04-19T16:33:08.491Z,23.06
2023-04-19T16:35:37.050Z,23.05
2023-04-19T16:38:07.156Z,23.06
2023-04-19T16:40:36.054Z,23.06
2023-04-19T16:43:06.531Z,23.05
2023-04-19T16:45:34.958Z,23.00
2023-04-19T16:48:06.339Z,22.98
2023-04-19T16:50:35.709Z,22.99
2023-04-19T16:53:03.937Z,22.96
2023-04-19T16:55:32.228Z,22.96
2023-04-19T16:58:00.744Z,22.96
2023-04-19T17:00:29.756Z,22.96
2023-04-19T17:02:58.372Z,22.99
2023-04-19T17:05:26.850Z,22.98
2023-04-19T17:07:56.851Z,22.96
2023-04-19T17:10:26.461Z,22.96
2023-04-19T17:12:56.025Z,22.94
2023-04-19T17:15:24.577Z,22.92
2023-04-19T17:17:53.094Z,22.88
2023-04-19T17:20:21.699Z,22.86
2023-04-19T17:22:50.006Z,22.81
2023-04-19T17:25:19.533Z,22.76
2023-04-19T17:27:49.654Z,22.71
2023-04-19T17:30:17.999Z,22.66
2023-04-19T17:32:46.508Z,22.63
2023-04-19T17:35:15.084Z,22.59
2023-04-19T17:37:43.919Z,22.57
2023-04-19T17:40:12.692Z,22.56
2023-04-19T17:42:41.189Z,22.53
2023-04-19T17:45:11.104Z,22.42
2023-04-19T17:47:39.923Z,22.34
2023-04-19T17:50:10.487Z,22.27
2023-04-19T17:52:40.194Z,22.20
2023-04-19T17:55:09.037Z,22.15
2023-04-19T17:57:37.512Z,22.10
2023-04-19T18:00:07.936Z,22.06
2023-04-19T18:02:40.732Z,22.08
2023-04-19T18:05:09.765Z,22.01
2023-04-19T18:07:40.157Z,22.01
2023-04-19T18:10:09.176Z,22.00
2023-04-19T18:12:37.776Z,22.00
2023-04-19T18:15:06.955Z,21.99
2023-04-19T18:17:35.988Z,21.99
2023-04-19T18:20:06.217Z,22.00
2023-04-19T18:22:34.671Z,22.05
2023-04-19T18:25:03.950Z,22.09
2023-04-19T18:27:32.916Z,22.08
2023-04-19T18:30:05.213Z,22.05
2023-04-19T18:32:34.239Z,22.06
2023-04-19T18:35:05.642Z,22.02
2023-04-19T18:37:33.969Z,22.01
2023-04-19T18:40:03.144Z,21.97
2023-04-19T18:42:31.808Z,21.98
2023-04-19T18:45:00.165Z,21.99
2023-04-19T18:47:28.577Z,21.95
2023-04-19T18:50:04.486Z,21.89
2023-04-19T18:52:35.437Z,21.86
2023-04-19T18:55:05.355Z,21.80
2023-04-19T18:57:35.444Z,21.71
2023-04-19T19:00:06.438Z,21.69
2023-04-19T19:02:37.684Z,21.66
2023-04-19T19:05:08.563Z,21.61
2023-04-19T19:07:38.051Z,21.55
2023-04-19T19:10:18.290Z,21.52
2023-04-19T19:12:50.042Z,21.46
2023-04-19T19:15:18.749Z,21.38
2023-04-19T19:17:49.698Z,21.32
2023-04-19T19:20:19.819Z,21.23
2023-04-19T19:22:48.559Z,21.14
2023-04-19T19:25:17.374Z,21.09
2023-04-19T19:28:05.437Z,21.00
2023-04-19T19:30:35.888Z,20.93
2023-04-19T19:33:05.190Z,20.85
2023-04-19T19:35:33.994Z,20.81
2023-04-19T19:38:02.469Z,20.68
2023-04-19T19:40:32.893Z,20.60
2023-04-19T19:43:01.805Z,20.54
2023-04-19T19:48:40.706Z,19.54
2023-04-19T19:51:31.381Z,20.64
2023-04-19T19:53:59.225Z,20.63
2023-04-19T19:56:28.275Z,20.61
2023-04-19T19:58:57.773Z,20.53
2023-04-19T20:01:27.426Z,20.46
2023-04-19T20:03:56.583Z,20.43
2023-04-19T20:07:21.479Z,20.40
2023-04-19T20:09:14.265Z,20.41
2023-04-19T20:11:42.558Z,20.39
2023-04-19T20:14:10.919Z,20.39
2023-04-19T20:16:39.664Z,20.40
2023-04-19T20:19:10.385Z,20.42
2023-04-19T20:21:39.486Z,20.47
2023-04-19T20:24:08.867Z,20.42
2023-04-19T20:26:37.491Z,20.39
2023-04-19T20:29:05.941Z,20.45
2023-04-19T20:31:34.976Z,20.51
2023-04-19T20:34:04.441Z,20.50
2023-04-19T20:36:33.205Z,20.48
2023-04-19T20:39:06.576Z,20.49
2023-04-19T20:41:35.798Z,20.41
2023-04-19T20:44:05.235Z,20.37
2023-04-19T20:46:34.780Z,20.30
2023-04-19T20:49:03.556Z,20.24
2023-04-19T20:51:32.112Z,20.22
2023-04-19T20:54:00.397Z,20.20
2023-04-19T20:56:28.741Z,20.15
2023-04-19T20:58:57.244Z,20.04
2023-04-19T21:01:25.553Z,20.08
2023-04-19T21:03:53.986Z,20.08
2023-04-19T21:06:23.412Z,20.09
2023-04-19T21:08:51.932Z,20.08
2023-04-19T21:11:20.263Z,20.04
2023-04-19T21:13:48.959Z,19.95
2023-04-19T21:16:17.354Z,19.85
2023-04-19T21:18:45.636Z,19.84
2023-04-19T21:21:13.894Z,19.80
2023-04-19T21:23:42.252Z,19.79
2023-04-19T21:26:11.550Z,19.79
2023-04-19T21:28:39.804Z,19.75
2023-04-19T21:31:09.064Z,19.80
2023-04-19T21:33:37.515Z,19.75
2023-04-19T21:36:06.461Z,19.64
2023-04-19T21:38:34.900Z,19.69
2023-04-19T21:41:03.892Z,19.71
2023-04-19T21:43:32.140Z,19.73
2023-04-19T21:46:02.109Z,19.73
2023-04-19T21:48:31.437Z,19.66
2023-04-19T21:51:00.892Z,19.69
2023-04-19T21:53:29.199Z,19.71
2023-04-19T21:55:57.506Z,19.67
2023-04-19T21:58:26.042Z,19.68
2023-04-19T22:00:54.413Z,19.65
2023-04-19T22:03:23.088Z,19.63
2023-04-19T22:05:51.900Z,19.61
2023-04-19T22:08:22.339Z,19.57
2023-04-19T22:10:50.783Z,19.55
2023-04-19T22:13:22.264Z,19.54
2023-04-19T22:15:50.803Z,19.55
2023-04-19T22:18:19.166Z,19.55
2023-04-19T22:20:49.893Z,19.56
2023-04-19T22:23:18.354Z,19.56
2023-04-19T22:25:47.060Z,19.52
2023-04-19T22:28:15.335Z,19.52
2023-04-19T22:30:43.692Z,19.48
2023-04-19T22:33:11.956Z,19.42
2023-04-19T22:35:41.016Z,19.41
2023-04-19T22:38:09.370Z,19.41
2023-04-19T22:40:37.827Z,19.48
2023-04-19T22:43:06.470Z,19.46
2023-04-19T22:45:34.898Z,19.46
2023-04-19T22:48:03.552Z,19.46
2023-04-19T22:50:32.144Z,19.42
2023-04-19T22:53:00.473Z,19.44
2023-04-19T22:55:28.751Z,19.52
2023-04-19T22:57:57.015Z,19.61
2023-04-19T23:00:26.734Z,19.59
2023-04-19T23:02:55.585Z,19.61
2023-04-19T23:05:26.996Z,19.59
2023-04-19T23:07:57.446Z,19.56
2023-04-19T23:10:26.698Z,19.55
2023-04-19T23:12:55.044Z,19.52
2023-04-19T23:15:25.002Z,19.51
2023-04-19T23:17:53.688Z,19.58
2023-04-19T23:20:22.090Z,19.61
2023-04-19T23:22:50.630Z,19.60
2023-04-19T23:25:18.831Z,19.55
2023-04-19T23:27:47.435Z,19.60
2023-04-19T23:30:15.986Z,19.64
2023-04-19T23:32:44.671Z,19.65
2023-04-19T23:35:13.149Z,19.65
2023-04-19T23:37:41.567Z,19.70
2023-04-19T23:40:10.532Z,19.71
2023-04-19T23:42:38.875Z,19.72
2023-04-19T23:45:07.682Z,19.71
2023-04-19T23:47:36.394Z,19.74
2023-04-19T23:50:05.084Z,19.75
2023-04-19T23:52:33.531Z,19.77
2023-04-19T23:55:01.726Z,19.75
2023-04-19T23:57:30.314Z,19.81
2023-04-19T23:59:58.723Z,19.79
